createdAt,value
2022-12-15T00:00:04.053Z,1.10
2022-12-15T00:02:49.740Z,1.42
2022-12-15T00:05:35.500Z,1.65
2022-12-15T00:08:28.474Z,1.20
2022-12-15T00:11:13.972Z,1.77
2022-12-15T00:13:59.511Z,1.38
2022-12-15T00:16:45.107Z,1.70
2022-12-15T00:19:30.644Z,1.00
2022-12-15T00:22:16.039Z,1.33
2022-12-15T00:25:01.347Z,1.13
2022-12-15T00:27:46.700Z,1.30
2022-12-15T00:30:32.218Z,1.40
2022-12-15T00:33:17.916Z,1.35
2022-12-15T00:36:03.450Z,1.50
2022-12-15T00:38:43.355Z,1.48
2022-12-15T00:41:18.046Z,1.30
2022-12-15T00:43:45.424Z,1.30
2022-12-15T00:46:30.982Z,1.40
2022-12-15T00:48:58.364Z,1.63
2022-12-15T00:51:43.826Z,1.23
2022-12-15T00:54:29.902Z,1.38
2022-12-15T00:57:15.385Z,1.40
2022-12-15T01:00:00.919Z,1.27
2022-12-15T01:02:46.652Z,1.50
2022-12-15T01:05:32.323Z,1.35
2022-12-15T01:08:18.809Z,1.48
2022-12-15T01:11:04.451Z,1.40
2022-12-15T01:13:50.066Z,1.33
2022-12-15T01:16:36.060Z,1.50
2022-12-15T01:19:21.611Z,1.33
2022-12-15T01:21:49.807Z,1.52
2022-12-15T01:24:16.833Z,1.50
2022-12-15T01:26:43.532Z,1.50
2022-12-15T01:29:10.317Z,1.33
2022-12-15T01:31:37.099Z,1.50
2022-12-15T01:34:03.927Z,1.40
2022-12-15T01:36:30.796Z,1.48
2022-12-15T01:38:57.547Z,1.20
2022-12-15T01:41:24.764Z,1.50
2022-12-15T01:43:51.544Z,1.30
2022-12-15T01:46:21.611Z,1.55
2022-12-15T01:49:26.573Z,1.48
2022-12-15T01:51:58.663Z,1.33
2022-12-15T01:54:37.906Z,1.93
2022-12-15T01:57:08.979Z,1.60
2022-12-15T01:59:40.998Z,1.27
2022-12-15T02:02:08.030Z,1.57
2022-12-15T02:04:35.048Z,1.20
2022-12-15T02:07:01.817Z,1.20
2022-12-15T02:09:29.034Z,1.20
2022-12-15T02:12:19.028Z,1.42
2022-12-15T02:15:10.942Z,1.50
2022-12-15T02:17:42.643Z,1.50
2022-12-15T02:20:33.954Z,1.77
2022-12-15T02:23:42.070Z,1.60
2022-12-15T02:26:30.167Z,1.50
2022-12-15T02:29:13.221Z,1.20
2022-12-15T02:31:50.071Z,1.73
2022-12-15T02:34:54.279Z,1.52
2022-12-15T02:37:29.743Z,1.33
2022-12-15T02:39:56.615Z,1.50
2022-12-15T02:42:24.656Z,1.50
2022-12-15T02:45:10.319Z,1.88
2022-12-15T02:47:57.865Z,1.40
2022-12-15T02:50:39.327Z,1.58
2022-12-15T02:53:20.498Z,1.70
2022-12-15T02:55:47.512Z,1.38
2022-12-15T02:58:35.920Z,1.50
2022-12-15T03:01:13.520Z,1.38
2022-12-15T03:03:42.177Z,1.40
2022-12-15T03:06:09.491Z,1.50
2022-12-15T03:08:36.248Z,1.40
2022-12-15T03:11:03.262Z,1.50
2022-12-15T03:13:30.278Z,1.40
2022-12-15T03:15:58.611Z,1.48
2022-12-15T03:18:25.357Z,1.70
2022-12-15T03:20:52.110Z,1.30
2022-12-15T03:23:19.246Z,1.30
2022-12-15T03:25:49.625Z,1.55
2022-12-15T03:28:17.132Z,1.33
2022-12-15T03:30:44.817Z,1.45
2022-12-15T03:33:11.681Z,1.52
2022-12-15T03:35:38.387Z,1.50
2022-12-15T03:38:05.161Z,1.60
2022-12-15T03:40:32.009Z,1.40
2022-12-15T03:42:58.853Z,1.70
2022-12-15T03:45:27.797Z,1.30
2022-12-15T03:47:56.259Z,1.50
2022-12-15T03:50:26.377Z,1.42
2022-12-15T03:52:55.154Z,1.58
2022-12-15T03:55:22.815Z,1.55
2022-12-15T03:57:50.986Z,1.38
2022-12-15T04:00:19.929Z,1.10
2022-12-15T04:02:50.134Z,1.40
2022-12-15T04:05:37.622Z,1.48
2022-12-15T04:08:04.626Z,1.35
2022-12-15T04:10:34.949Z,1.50
2022-12-15T04:13:11.822Z,1.20
2022-12-15T04:15:40.064Z,1.20
2022-12-15T04:18:10.031Z,1.50
2022-12-15T04:20:38.177Z,1.20
2022-12-15T04:23:07.902Z,1.40
2022-12-15T04:25:54.961Z,1.50
2022-12-15T04:28:40.558Z,1.35
2022-12-15T04:31:30.689Z,1.70
2022-12-15T04:34:22.653Z,1.63
2022-12-15T04:37:11.162Z,1.50
2022-12-15T04:39:59.486Z,1.50
2022-12-15T04:42:45.512Z,1.58
2022-12-15T04:45:31.937Z,1.50
2022-12-15T04:48:18.358Z,1.40
2022-12-15T04:51:03.683Z,1.48
2022-12-15T04:53:49.174Z,1.48
2022-12-15T04:56:35.446Z,1.40
2022-12-15T04:59:21.433Z,1.40
2022-12-15T05:02:07.097Z,1.48
2022-12-15T05:04:52.663Z,1.52
2022-12-15T05:07:38.826Z,1.45
2022-12-15T05:10:25.595Z,1.70
2022-12-15T05:13:10.859Z,1.60
2022-12-15T05:15:56.392Z,1.58
2022-12-15T05:18:42.028Z,1.65
2022-12-15T05:21:27.689Z,1.52
2022-12-15T05:24:13.274Z,1.33
2022-12-15T05:26:58.721Z,1.58
2022-12-15T05:29:44.318Z,1.40
2022-12-15T05:32:13.402Z,1.55
2022-12-15T05:34:40.196Z,1.50
2022-12-15T05:37:07.904Z,1.55
2022-12-15T05:39:34.851Z,1.50
2022-12-15T05:42:01.668Z,1.60
2022-12-15T05:44:29.408Z,1.90
2022-12-15T05:46:56.456Z,1.52
2022-12-15T05:49:26.199Z,1.38
2022-12-15T05:51:52.928Z,1.65
2022-12-15T05:54:20.663Z,1.50
2022-12-15T05:56:50.416Z,1.63
2022-12-15T05:59:17.889Z,1.50
2022-12-15T06:01:45.194Z,1.52
2022-12-15T06:04:15.124Z,1.50
2022-12-15T06:06:42.143Z,1.67
2022-12-15T06:09:09.493Z,1.80
2022-12-15T06:11:37.439Z,1.42
2022-12-15T06:14:04.455Z,1.50
2022-12-15T06:16:31.251Z,1.60
2022-12-15T06:19:00.438Z,1.67
2022-12-15T06:21:35.552Z,1.40
2022-12-15T06:24:04.194Z,1.40
2022-12-15T06:26:38.580Z,1.30
2022-12-15T06:29:08.632Z,1.42
2022-12-15T06:31:36.405Z,1.40
2022-12-15T06:34:08.206Z,1.48
2022-12-15T06:36:35.231Z,1.30
2022-12-15T06:39:04.299Z,1.50
2022-12-15T06:41:31.663Z,1.50
2022-12-15T06:43:59.611Z,1.50
2022-12-15T06:46:28.070Z,1.30
2022-12-15T06:48:55.417Z,1.60
2022-12-15T06:51:22.380Z,1.52
2022-12-15T06:53:49.890Z,1.42
2022-12-15T06:56:33.158Z,1.55
2022-12-15T06:59:02.161Z,1.75
2022-12-15T07:01:30.018Z,1.60
2022-12-15T07:03:59.898Z,1.30
2022-12-15T07:06:27.525Z,1.40
2022-12-15T07:08:56.561Z,1.52
2022-12-15T07:11:23.890Z,1.30
2022-12-15T07:13:54.640Z,1.60
2022-12-15T07:16:22.936Z,1.40
2022-12-15T07:18:49.839Z,1.40
2022-12-15T07:21:17.247Z,1.40
2022-12-15T07:24:00.715Z,1.40
2022-12-15T07:26:27.924Z,1.50
2022-12-15T07:28:54.739Z,1.63
2022-12-15T07:31:22.282Z,1.35
2022-12-15T07:33:49.505Z,1.70
2022-12-15T07:36:16.481Z,1.40
2022-12-15T07:38:50.060Z,1.40
2022-12-15T07:41:19.079Z,1.33
2022-12-15T07:43:47.453Z,1.50
2022-12-15T07:46:14.334Z,1.35
2022-12-15T07:48:41.741Z,1.30
2022-12-15T07:51:17.237Z,1.52
2022-12-15T07:53:46.917Z,1.35
2022-12-15T07:56:13.891Z,1.63
2022-12-15T07:58:40.602Z,1.48
2022-12-15T08:01:10.405Z,1.35
2022-12-15T08:03:38.681Z,1.40
2022-12-15T08:06:07.617Z,1.40
2022-12-15T08:08:35.719Z,1.45
2022-12-15T08:11:11.466Z,1.48
2022-12-15T08:16:26.605Z,1.40
2022-12-15T08:18:53.828Z,1.40
2022-12-15T08:21:20.738Z,1.52
2022-12-15T08:23:48.091Z,1.40
2022-12-15T08:26:17.989Z,1.13
2022-12-15T08:28:46.143Z,1.23
2022-12-15T08:31:18.681Z,1.50
2022-12-15T08:33:47.066Z,1.63
2022-12-15T08:36:16.925Z,1.58
2022-12-15T08:38:44.841Z,1.10
2022-12-15T08:41:15.791Z,1.40
2022-12-15T08:43:48.223Z,1.55
2022-12-15T08:46:20.382Z,1.30
2022-12-15T08:48:48.124Z,1.27
2022-12-15T08:51:15.656Z,1.35
2022-12-15T08:53:42.621Z,1.45
2022-12-15T08:56:15.864Z,1.42
2022-12-15T09:01:23.604Z,1.30
2022-12-15T09:03:52.486Z,1.55
2022-12-15T09:06:26.908Z,1.38
2022-12-15T09:09:02.836Z,1.30
2022-12-15T09:11:30.530Z,1.30
2022-12-15T09:13:57.619Z,1.30
2022-12-15T09:16:24.885Z,1.42
2022-12-15T09:18:55.927Z,1.33
2022-12-15T09:21:26.125Z,1.35
2022-12-15T09:23:55.903Z,1.02
2022-12-15T09:26:23.764Z,1.05
2022-12-15T09:28:51.924Z,1.20
2022-12-15T09:31:22.032Z,1.30
2022-12-15T09:33:51.904Z,1.20
2022-12-15T09:36:18.832Z,1.10
2022-12-15T09:38:45.832Z,1.20
2022-12-15T09:41:15.605Z,1.20
2022-12-15T09:43:56.589Z,1.00
2022-12-15T09:46:26.939Z,1.42
2022-12-15T09:48:55.897Z,1.40
2022-12-15T09:51:33.124Z,1.27
2022-12-15T09:54:00.649Z,1.33
2022-12-15T09:56:50.054Z,1.13
2022-12-15T09:59:32.815Z,1.20
2022-12-15T10:02:18.558Z,1.23
2022-12-15T10:05:11.111Z,1.08
2022-12-15T10:07:43.913Z,1.10
2022-12-15T10:10:18.924Z,1.38
2022-12-15T10:12:59.933Z,1.20
2022-12-15T10:15:35.230Z,1.20
2022-12-15T10:18:43.378Z,0.90
2022-12-15T10:21:14.337Z,1.20
2022-12-15T10:23:41.408Z,1.08
2022-12-15T10:26:23.360Z,1.30
2022-12-15T10:29:15.920Z,1.10
2022-12-15T10:32:01.797Z,1.17
2022-12-15T10:34:39.252Z,1.10
2022-12-15T10:37:06.381Z,1.10
2022-12-15T10:39:44.469Z,1.00
2022-12-15T10:42:27.634Z,0.93
2022-12-15T10:44:57.710Z,1.20
2022-12-15T10:47:31.361Z,1.30
2022-12-15T10:50:25.450Z,1.15
2022-12-15T10:52:52.637Z,1.00
2022-12-15T10:55:40.188Z,1.00
2022-12-15T10:58:22.015Z,0.98
2022-12-15T11:01:05.096Z,1.10
2022-12-15T11:03:37.246Z,1.10
2022-12-15T11:06:14.471Z,0.90
2022-12-15T11:08:42.152Z,0.88
2022-12-15T11:11:50.672Z,1.05
2022-12-15T11:14:24.275Z,1.00
2022-12-15T11:16:58.907Z,0.98
2022-12-15T11:19:44.911Z,0.93
2022-12-15T11:22:42.031Z,0.95
2022-12-15T11:25:36.923Z,0.98
2022-12-15T11:28:11.648Z,0.90
2022-12-15T11:30:45.599Z,1.13
2022-12-15T11:33:12.398Z,0.93
2022-12-15T11:36:10.191Z,1.00
2022-12-15T11:38:47.048Z,0.90
2022-12-15T11:41:33.907Z,0.90
2022-12-15T11:44:23.380Z,0.90
2022-12-15T11:47:28.773Z,0.80
2022-12-15T11:50:18.803Z,0.70
2022-12-15T11:53:00.933Z,0.90
2022-12-15T11:55:41.044Z,0.88
2022-12-15T11:58:36.261Z,1.02
2022-12-15T12:01:22.304Z,1.00
2022-12-15T12:03:55.121Z,0.80
2022-12-15T12:06:49.190Z,0.77
2022-12-15T12:09:28.904Z,0.80
2022-12-15T12:12:32.750Z,0.70
2022-12-15T12:15:05.888Z,0.85
2022-12-15T12:17:49.791Z,0.90
2022-12-15T12:20:19.766Z,0.82
2022-12-15T12:23:15.127Z,0.80
2022-12-15T12:26:03.777Z,0.82
2022-12-15T12:28:52.249Z,0.90
2022-12-15T12:31:38.907Z,0.80
2022-12-15T12:34:22.670Z,0.88
2022-12-15T12:36:51.920Z,0.70
2022-12-15T12:39:23.567Z,0.90
2022-12-15T12:42:22.812Z,0.80
2022-12-15T12:44:49.667Z,0.90
2022-12-15T12:47:25.908Z,0.73
2022-12-15T12:49:57.751Z,0.73
2022-12-15T12:52:27.910Z,0.80
2022-12-15T12:55:14.615Z,0.75
2022-12-15T12:57:43.569Z,0.80
2022-12-15T13:00:17.340Z,0.80
2022-12-15T13:02:48.434Z,0.70
2022-12-15T13:05:23.594Z,1.00
2022-12-15T13:08:17.061Z,0.80
2022-12-15T13:10:48.189Z,0.80
2022-12-15T13:13:31.309Z,0.80
2022-12-15T13:16:11.264Z,0.70
2022-12-15T13:18:56.430Z,0.73
2022-12-15T13:21:41.796Z,0.70
2022-12-15T13:24:30.510Z,0.70
2022-12-15T13:27:09.257Z,0.75
2022-12-15T13:29:54.940Z,0.70
2022-12-15T13:32:37.926Z,0.60
2022-12-15T13:35:13.880Z,0.88
2022-12-15T13:37:56.733Z,0.60
2022-12-15T13:40:23.877Z,0.90
2022-12-15T13:43:09.390Z,0.60
2022-12-15T13:45:53.921Z,0.90
2022-12-15T13:48:41.870Z,0.80
2022-12-15T13:51:38.909Z,0.75
2022-12-15T13:54:10.031Z,0.65
2022-12-15T13:57:04.410Z,0.70
2022-12-15T13:59:36.200Z,0.77
2022-12-15T14:02:04.024Z,0.80
2022-12-15T14:04:31.928Z,0.80
2022-12-15T14:07:01.841Z,0.80
2022-12-15T14:09:38.908Z,0.70
2022-12-15T14:12:12.242Z,0.75
2022-12-15T14:17:14.169Z,0.73
2022-12-15T14:19:43.788Z,0.70
2022-12-15T14:22:28.266Z,0.70
2022-12-15T14:25:13.887Z,0.70
2022-12-15T14:27:40.826Z,0.82
2022-12-15T14:30:30.063Z,0.90
2022-12-15T14:33:14.138Z,0.80
2022-12-15T14:35:50.668Z,0.70
2022-12-15T14:38:46.905Z,0.73
2022-12-15T14:41:23.918Z,0.90
2022-12-15T14:44:36.560Z,0.60
2022-12-15T14:46:48.021Z,0.80
2022-12-15T14:49:22.949Z,0.60
2022-12-15T14:51:53.327Z,0.75
2022-12-15T14:54:58.921Z,0.80
2022-12-15T14:59:54.116Z,0.75
2022-12-15T15:02:29.958Z,0.80
2022-12-15T15:05:02.957Z,0.80
2022-12-15T15:07:32.064Z,0.90
2022-12-15T15:10:00.621Z,0.80
2022-12-15T15:12:49.418Z,0.70
2022-12-15T15:15:21.816Z,0.70
2022-12-15T15:17:54.932Z,0.90
2022-12-15T15:20:26.896Z,0.80
2022-12-15T15:23:15.146Z,0.88
2022-12-15T15:25:51.225Z,0.82
2022-12-15T15:28:17.962Z,0.80
2022-12-15T15:30:49.579Z,1.00
2022-12-15T15:33:17.182Z,1.00
2022-12-15T15:35:44.877Z,0.90
2022-12-15T15:38:20.654Z,0.98
2022-12-15T15:41:01.979Z,1.00
2022-12-15T15:43:29.435Z,0.90
2022-12-15T15:46:02.266Z,0.80
2022-12-15T15:48:33.436Z,1.00
2022-12-15T15:51:01.080Z,0.90
2022-12-15T15:53:31.893Z,0.82
2022-12-15T15:55:59.234Z,0.93
2022-12-15T15:58:26.023Z,1.00
2022-12-15T16:00:53.541Z,0.88
2022-12-15T16:03:21.106Z,0.90
2022-12-15T16:05:48.029Z,0.82
2022-12-15T16:08:18.639Z,0.80
2022-12-15T16:10:47.570Z,1.00
2022-12-15T16:13:25.591Z,0.80
2022-12-15T16:15:53.118Z,1.15
2022-12-15T16:18:20.114Z,0.90
2022-12-15T16:20:50.414Z,1.00
2022-12-15T16:23:20.856Z,0.80
2022-12-15T16:25:51.519Z,0.82
2022-12-15T16:28:21.138Z,1.05
2022-12-15T16:30:48.900Z,0.88
2022-12-15T16:33:16.128Z,1.00
2022-12-15T16:35:44.436Z,0.90
2022-12-15T16:38:26.819Z,1.02
2022-12-15T16:40:55.451Z,0.80
2022-12-15T16:43:24.644Z,0.90
2022-12-15T16:45:52.930Z,0.90
2022-12-15T16:48:20.497Z,0.98
2022-12-15T16:50:53.115Z,0.95
2022-12-15T16:53:25.733Z,0.90
2022-12-15T16:55:55.785Z,1.10
2022-12-15T16:58:23.566Z,0.80
2022-12-15T17:00:50.746Z,0.93
2022-12-15T17:03:19.204Z,0.90
2022-12-15T17:05:50.054Z,1.00
2022-12-15T17:08:32.351Z,0.90
2022-12-15T17:10:59.578Z,0.98
2022-12-15T17:13:40.531Z,0.90
2022-12-15T17:16:13.570Z,1.00
2022-12-15T17:18:40.779Z,1.00
2022-12-15T17:21:16.545Z,1.00
2022-12-15T17:23:45.912Z,0.90
2022-12-15T17:26:27.994Z,1.10
2022-12-15T17:28:58.639Z,0.90
2022-12-15T17:31:30.248Z,1.20
2022-12-15T17:34:02.734Z,0.95
2022-12-15T17:36:29.571Z,0.93
2022-12-15T17:38:59.222Z,1.00
2022-12-15T17:41:58.257Z,0.90
2022-12-15T17:44:40.799Z,0.80
2022-12-15T17:47:08.865Z,0.80
2022-12-15T17:49:37.979Z,0.93
2022-12-15T17:52:17.920Z,0.80
2022-12-15T17:54:44.665Z,0.90
2022-12-15T17:57:11.713Z,1.00
2022-12-15T17:59:38.587Z,0.90
2022-12-15T18:02:05.425Z,1.10
2022-12-15T18:04:32.287Z,0.93
2022-12-15T18:07:02.087Z,1.10
2022-12-15T18:09:30.559Z,0.93
2022-12-15T18:11:57.594Z,1.02
2022-12-15T18:14:24.902Z,1.02
2022-12-15T18:16:51.641Z,0.90
2022-12-15T18:19:18.468Z,0.80
2022-12-15T18:21:45.318Z,0.85
2022-12-15T18:24:17.447Z,0.95
2022-12-15T18:26:44.447Z,0.90
2022-12-15T18:29:18.194Z,1.00
2022-12-15T18:31:49.409Z,0.95
2022-12-15T18:34:21.273Z,1.00
2022-12-15T18:36:48.369Z,1.10
2022-12-15T18:39:20.760Z,1.00
2022-12-15T18:41:48.912Z,1.00
2022-12-15T18:44:26.398Z,0.95
2022-12-15T18:46:55.088Z,0.90
2022-12-15T18:49:23.002Z,1.00
2022-12-15T18:51:50.345Z,1.15
2022-12-15T18:54:19.887Z,1.10
2022-12-15T18:56:46.902Z,1.10
2022-12-15T18:59:15.718Z,1.20
2022-12-15T19:01:43.383Z,1.00
2022-12-15T19:04:10.315Z,0.90
2022-12-15T19:06:38.196Z,1.10
2022-12-15T19:09:08.211Z,1.00
2022-12-15T19:11:34.967Z,1.25
2022-12-15T19:14:03.501Z,1.10
2022-12-15T19:16:50.747Z,1.10
2022-12-15T19:19:43.554Z,1.05
2022-12-15T19:22:30.711Z,1.10
2022-12-15T19:24:59.104Z,0.93
2022-12-15T19:27:26.796Z,1.08
2022-12-15T19:29:54.611Z,1.10
2022-12-15T19:32:23.056Z,1.00
2022-12-15T19:34:50.307Z,1.10
2022-12-15T19:37:25.249Z,1.15
2022-12-15T19:39:53.141Z,1.00
2022-12-15T19:42:34.254Z,1.10
2022-12-15T19:45:01.841Z,1.10
2022-12-15T19:47:29.741Z,0.98
2022-12-15T19:49:56.498Z,1.27
2022-12-15T19:52:23.462Z,1.10
2022-12-15T19:54:50.593Z,1.00
2022-12-15T19:57:18.644Z,1.10
2022-12-15T19:59:45.767Z,1.20
2022-12-15T20:02:17.764Z,1.45
2022-12-15T20:04:45.106Z,1.25
2022-12-15T20:07:18.588Z,1.15
2022-12-15T20:09:45.375Z,1.25
2022-12-15T20:12:18.374Z,1.08
2022-12-15T20:14:46.287Z,1.00
2022-12-15T20:17:13.387Z,1.00
2022-12-15T20:19:40.125Z,1.17
2022-12-15T20:22:16.651Z,1.10
2022-12-15T20:24:44.834Z,1.23
2022-12-15T20:27:14.240Z,1.05
2022-12-15T20:29:41.319Z,1.05
2022-12-15T20:32:17.068Z,1.02
2022-12-15T20:34:44.249Z,1.02
2022-12-15T20:37:26.726Z,1.23
2022-12-15T20:39:57.380Z,1.20
2022-12-15T20:42:24.834Z,1.00
2022-12-15T20:44:51.634Z,1.10
2022-12-15T20:47:26.537Z,1.20
2022-12-15T20:49:55.014Z,1.30
2022-12-15T20:52:25.235Z,1.02
2022-12-15T20:54:53.925Z,0.98
2022-12-15T20:57:21.649Z,1.25
2022-12-15T20:59:48.503Z,1.10
2022-12-15T21:02:22.041Z,1.20
2022-12-15T21:04:50.196Z,1.15
2022-12-15T21:07:17.021Z,1.17
2022-12-15T21:09:43.762Z,1.27
2022-12-15T21:12:22.005Z,1.27
2022-12-15T21:14:49.523Z,1.13
2022-12-15T21:17:21.465Z,1.00
2022-12-15T21:19:49.046Z,1.10
2022-12-15T21:22:20.590Z,1.08
2022-12-15T21:24:50.659Z,1.23
2022-12-15T21:27:17.810Z,1.00
2022-12-15T21:29:51.853Z,1.20
2022-12-15T21:32:19.195Z,1.20
2022-12-15T21:34:45.982Z,1.20
2022-12-15T21:37:25.471Z,1.10
2022-12-15T21:39:52.435Z,1.20
2022-12-15T21:42:19.894Z,1.00
2022-12-15T21:44:47.218Z,1.20
2022-12-15T21:47:46.927Z,1.20
2022-12-15T21:50:14.762Z,1.10
2022-12-15T21:52:42.249Z,1.05
2022-12-15T21:55:21.334Z,1.30
2022-12-15T21:57:48.175Z,1.10
2022-12-15T22:00:17.464Z,1.13
2022-12-15T22:02:45.886Z,1.00
2022-12-15T22:05:17.337Z,1.10
2022-12-15T22:07:44.261Z,1.10
2022-12-15T22:10:11.409Z,1.15
2022-12-15T22:12:39.320Z,1.08
2022-12-15T22:15:18.059Z,1.20
2022-12-15T22:17:44.870Z,1.05
2022-12-15T22:20:20.780Z,1.00
2022-12-15T22:22:48.400Z,1.23
2022-12-15T22:25:19.875Z,1.02
2022-12-15T22:27:47.810Z,1.10
2022-12-15T22:30:18.765Z,1.00
2022-12-15T22:32:46.333Z,1.00
2022-12-15T22:35:21.814Z,1.20
2022-12-15T22:37:53.908Z,1.00
2022-12-15T22:40:23.316Z,1.27
2022-12-15T22:42:54.968Z,1.00
2022-12-15T22:45:24.170Z,1.13
2022-12-15T22:47:52.397Z,1.15
2022-12-15T22:50:22.054Z,1.20
2022-12-15T22:52:49.315Z,1.00
2022-12-15T22:55:17.869Z,1.10
2022-12-15T22:57:59.418Z,1.30
2022-12-15T23:00:26.467Z,1.17
2022-12-15T23:02:53.434Z,1.10
2022-12-15T23:05:20.585Z,1.10
2022-12-15T23:07:47.542Z,1.20
2022-12-15T23:10:35.477Z,1.30
2022-12-15T23:13:02.335Z,1.13
2022-12-15T23:15:47.916Z,1.45
2022-12-15T23:18:14.734Z,1.25
2022-12-15T23:20:42.320Z,1.20
2022-12-15T23:23:11.999Z,1.52
2022-12-15T23:25:38.840Z,1.15
2022-12-15T23:28:05.572Z,1.30
2022-12-15T23:30:32.539Z,1.48
2022-12-15T23:32:59.824Z,1.33
2022-12-15T23:35:26.681Z,1.10
2022-12-15T23:37:53.532Z,1.10
2022-12-15T23:40:22.391Z,1.10
2022-12-15T23:42:50.530Z,1.08
2022-12-15T23:45:18.471Z,1.25
2022-12-15T23:47:45.313Z,1.00
2022-12-15T23:50:12.287Z,1.00
2022-12-15T23:52:39.072Z,1.00
2022-12-15T23:55:09.976Z,1.17
2022-12-15T23:57:38.385Z,1.17
